Pagrindinis puslapis
METAR-TAF:

METAR-TAF

Oro uostai :

Šeleftėjas, Švedija

platuma: 64-38N, ilguma: 021-05E, Aukštis: 49 m

Dabartinis oras

Ataskaita buvo paskelbta 49 minutes, ne 02:50 UTC
Vėjas 7 kt iš Vakarų
Temperatūra 9°C
Drėgmė 93%
Slėgis 1016 hPa
Matomumas 10 km arba daugiau

METAR: ESNS 240250Z AUTO 28007KT 9999 NCD 09/08 Q1016

Laikas: 05:39 (03:39 UTC)

Prognozė

Ataskaita buvo paskelbta 13 valandos ir 9 minutes, ne 14:30 UTC
Prognozė galioja nuo 23 metu 15 UTC su 23 metu 19 UTC
Vėjas 2 kt nuo kintamojo kryptimis
Matomumas 10 km arba daugiau
Mažai debesys ne aukštis 1500 ft
Su prošvaistėmis ne aukštis 2500 ft
Laikinai
nuo 23 metu 15 UTC su 23 metu 19 UTC
Su prošvaistėmis ne aukštis 1400 ft
Su prošvaistėmis ne aukštis 3000 ft, Liūtiniai kamuoliniai debesys.
lietus

TAF: ESNS 231430Z 2315/2319 VRB02KT 9999 FEW015 BKN025 TEMPO 2315/2319 SHRA BKN014 BKN030CB

Orai ataskaitas ir orų prognozės (METAR, TAF).

turimą stotys yra geltonos ir raudonos taškus žemėlapyje.

Perkelti pele per norėdami pamatyti stoties vardą.

Tada spustelėkite, norėdami matyti oro stebėjimo ir prognozės.

Norėdami pakeisti žemėlapį: spustelėkite ant žalios mygtukų su juodo kryžiaus žemyn,; žalią mygtuką su brūkšneliu, jei norite nutolinti; arba žalių rodyklių gretimoms žemėlapius.


METAR-TAF: